createdAt,value
2022-08-10T00:00:01.819Z,83.40
2022-08-10T00:02:28.486Z,83.00
2022-08-10T00:04:55.129Z,82.90
2022-08-10T00:07:22.948Z,82.70
2022-08-10T00:09:50.704Z,82.70
2022-08-10T00:12:18.933Z,82.70
2022-08-10T00:14:45.771Z,82.80
2022-08-10T00:17:12.638Z,82.80
2022-08-10T00:20:02.953Z,83.70
2022-08-10T00:22:31.164Z,82.90
2022-08-10T00:24:58.255Z,84.20
2022-08-10T00:27:51.914Z,83.30
2022-08-10T00:30:16.388Z,83.60
2022-08-10T00:32:44.557Z,83.50
2022-08-10T00:35:15.188Z,83.90
2022-08-10T00:37:41.956Z,83.80
2022-08-10T00:40:35.425Z,83.70
2022-08-10T00:43:08.087Z,83.50
2022-08-10T00:45:35.650Z,84.00
2022-08-10T00:48:03.559Z,84.10
2022-08-10T00:50:32.562Z,84.20
2022-08-10T00:53:01.494Z,84.00
2022-08-10T00:55:30.786Z,84.00
2022-08-10T00:57:58.048Z,84.10
2022-08-10T01:00:24.946Z,84.20
2022-08-10T01:02:52.446Z,84.00
2022-08-10T01:05:22.621Z,84.20
2022-08-10T01:08:09.741Z,84.40
2022-08-10T01:11:07.664Z,84.50
2022-08-10T01:14:03.725Z,84.70
2022-08-10T01:16:38.552Z,84.40
2022-08-10T01:19:30.110Z,84.40
2022-08-10T01:22:12.030Z,84.40
2022-08-10T01:24:44.556Z,84.40
2022-08-10T01:27:14.192Z,84.40
2022-08-10T01:30:03.708Z,84.70
2022-08-10T01:41:45.941Z,85.00
2022-08-10T01:44:24.723Z,85.00
2022-08-10T01:47:22.251Z,85.40
2022-08-10T01:50:00.082Z,85.80
2022-08-10T01:52:28.599Z,86.20
2022-08-10T01:54:57.682Z,86.50
2022-08-10T01:57:31.551Z,86.80
2022-08-10T02:00:02.779Z,87.10
2022-08-10T02:02:34.418Z,87.60
2022-08-10T02:05:04.639Z,87.80
2022-08-10T02:07:44.256Z,88.20
2022-08-10T02:10:15.021Z,88.40
2022-08-10T02:12:43.933Z,88.50
2022-08-10T02:15:15.893Z,89.00
2022-08-10T02:17:57.089Z,89.40
2022-08-10T02:20:31.722Z,89.40
2022-08-10T02:23:04.579Z,89.80
2022-08-10T02:25:42.122Z,90.20
2022-08-10T02:28:29.268Z,90.10
2022-08-10T02:31:11.550Z,90.50
2022-08-10T02:33:56.411Z,90.50
2022-08-10T02:36:27.300Z,90.60
2022-08-10T02:39:01.712Z,90.70
2022-08-10T02:45:13.340Z,90.70
2022-08-10T02:45:25.953Z,90.80
2022-08-10T02:47:56.483Z,91.00
2022-08-10T02:50:38.059Z,91.00
2022-08-10T02:53:54.304Z,91.10
2022-08-10T02:56:36.207Z,91.30
2022-08-10T03:02:46.214Z,91.60
2022-08-10T03:05:18.638Z,91.50
2022-08-10T03:08:14.009Z,91.50
2022-08-10T03:10:43.325Z,91.60
2022-08-10T03:13:11.675Z,91.80
2022-08-10T03:15:44.349Z,91.90
2022-08-10T03:18:12.216Z,92.10
2022-08-10T03:20:41.405Z,92.10
2022-08-10T03:23:15.666Z,92.20
2022-08-10T03:25:54.393Z,92.30
2022-08-10T03:28:27.149Z,92.50
2022-08-10T03:30:54.647Z,92.60
2022-08-10T03:33:25.996Z,92.80
2022-08-10T03:36:43.727Z,93.00
2022-08-10T03:38:47.856Z,93.20
2022-08-10T03:41:16.929Z,93.40
2022-08-10T03:43:51.509Z,93.30
2022-08-10T03:46:22.872Z,93.40
2022-08-10T03:48:52.269Z,93.60
2022-08-10T03:51:23.532Z,93.60
2022-08-10T03:54:06.155Z,93.60
2022-08-10T03:56:35.871Z,93.90
2022-08-10T03:59:08.431Z,93.90
2022-08-10T04:02:45.056Z,94.10
2022-08-10T04:04:26.563Z,94.10
2022-08-10T04:06:58.664Z,94.30
2022-08-10T04:09:53.605Z,94.30
2022-08-10T04:12:22.284Z,94.40
2022-08-10T04:20:56.377Z,94.90
2022-08-10T04:23:26.478Z,95.00
2022-08-10T04:25:55.012Z,94.90
2022-08-10T04:28:25.467Z,95.00
2022-08-10T04:30:54.115Z,95.10
2022-08-10T04:33:22.732Z,95.20
2022-08-10T04:35:52.446Z,95.30
2022-08-10T04:38:24.526Z,95.40
2022-08-10T04:40:57.487Z,95.50
2022-08-10T04:43:28.022Z,95.60
2022-08-10T04:45:59.536Z,95.90
2022-08-10T04:48:42.658Z,95.90
2022-08-10T04:51:18.047Z,95.90
2022-08-10T04:54:04.778Z,95.90
2022-08-10T04:56:36.559Z,95.90
2022-08-10T04:59:07.364Z,96.00
2022-08-10T05:02:30.575Z,96.20
2022-08-10T05:04:54.196Z,96.40
2022-08-10T05:07:21.091Z,96.60
2022-08-10T05:10:01.154Z,96.40
2022-08-10T05:12:36.578Z,96.50
2022-08-10T05:15:09.278Z,96.80
2022-08-10T05:17:37.093Z,96.90
2022-08-10T05:20:08.280Z,96.90
2022-08-10T05:22:37.840Z,97.00
2022-08-10T05:25:06.899Z,97.10
2022-08-10T05:27:34.208Z,97.20
2022-08-10T05:30:04.239Z,97.50
2022-08-10T05:32:56.599Z,97.80
2022-08-10T05:35:56.509Z,97.50
2022-08-10T05:38:22.707Z,97.50
2022-08-10T05:40:49.768Z,97.40
2022-08-10T05:43:18.274Z,97.40
2022-08-10T05:46:20.000Z,97.50
2022-08-10T05:48:55.139Z,97.10
2022-08-10T05:51:24.591Z,97.00
2022-08-10T05:54:02.863Z,96.50
2022-08-10T05:56:57.034Z,96.30
2022-08-10T06:00:35.615Z,96.10
2022-08-10T06:02:35.453Z,96.00
2022-08-10T06:05:07.872Z,96.10
2022-08-10T06:07:38.519Z,95.60
2022-08-10T06:10:10.463Z,95.60
2022-08-10T06:13:23.712Z,95.70
2022-08-10T06:15:59.751Z,95.10
2022-08-10T06:18:26.548Z,95.20
2022-08-10T06:20:56.655Z,95.40
2022-08-10T06:23:25.474Z,94.80
2022-08-10T06:26:10.584Z,95.10
2022-08-10T06:29:19.371Z,94.40
2022-08-10T06:31:50.457Z,94.10
2022-08-10T06:40:31.987Z,93.70
2022-08-10T06:43:00.636Z,93.50
2022-08-10T06:45:35.540Z,93.50
2022-08-10T06:48:09.423Z,93.10
2022-08-10T06:50:56.405Z,93.10
2022-08-10T06:53:54.327Z,92.80
2022-08-10T06:56:36.687Z,92.70
2022-08-10T06:59:21.284Z,92.40
2022-08-10T07:02:14.857Z,92.70
2022-08-10T07:04:58.849Z,91.80
2022-08-10T07:07:31.439Z,91.60
2022-08-10T07:10:00.962Z,91.50
2022-08-10T07:12:30.003Z,91.20
2022-08-10T07:14:58.685Z,90.50
2022-08-10T07:17:26.799Z,90.50
2022-08-10T07:19:59.051Z,90.40
2022-08-10T07:23:02.569Z,90.40
2022-08-10T07:25:26.473Z,90.00
2022-08-10T07:28:00.511Z,90.60
2022-08-10T07:30:39.015Z,87.60
2022-08-10T07:33:06.804Z,87.50
2022-08-10T07:35:43.209Z,86.00
2022-08-10T07:38:16.501Z,85.30
2022-08-10T07:40:47.959Z,84.70
2022-08-10T07:43:20.027Z,84.30
2022-08-10T07:45:56.236Z,83.80
2022-08-10T07:48:34.396Z,83.10
2022-08-10T07:51:02.176Z,83.00
2022-08-10T07:53:39.208Z,82.90
2022-08-10T07:56:25.986Z,82.90
2022-08-10T07:59:08.079Z,80.60
2022-08-10T08:01:40.282Z,79.80
2022-08-10T08:04:12.144Z,79.50
2022-08-10T08:06:46.213Z,79.40
2022-08-10T08:09:13.050Z,77.80
2022-08-10T08:11:43.601Z,77.30
2022-08-10T08:14:16.562Z,76.80
2022-08-10T08:16:48.260Z,75.50
2022-08-10T08:19:37.974Z,75.00
2022-08-10T08:24:10.315Z,74.70
2022-08-10T08:24:54.949Z,71.80
2022-08-10T08:27:23.859Z,71.10
2022-08-10T08:29:51.956Z,70.00
2022-08-10T08:32:24.547Z,71.10
2022-08-10T08:35:12.417Z,69.90
2022-08-10T08:38:30.417Z,70.10
2022-08-10T08:40:34.449Z,67.50
2022-08-10T08:43:31.938Z,67.20
2022-08-10T08:46:17.510Z,66.80
2022-08-10T08:49:14.632Z,66.90
2022-08-10T08:52:34.985Z,67.20
2022-08-10T08:59:02.914Z,62.50
2022-08-10T09:02:28.641Z,59.90
2022-08-10T09:05:02.992Z,59.10
2022-08-10T09:08:16.590Z,58.80
2022-08-10T09:10:52.222Z,58.60
2022-08-10T09:13:37.093Z,57.80
2022-08-10T09:16:25.358Z,58.60
2022-08-10T09:19:34.649Z,58.20
2022-08-10T09:22:21.229Z,57.90
2022-08-10T09:24:58.081Z,57.80
2022-08-10T09:27:50.081Z,55.10
2022-08-10T09:30:32.952Z,54.80
2022-08-10T09:36:19.403Z,55.30
2022-08-10T09:36:24.063Z,54.40
2022-08-10T09:39:07.366Z,54.60
2022-08-10T09:41:57.298Z,51.30
2022-08-10T09:44:57.413Z,52.50
2022-08-10T09:48:02.696Z,50.50
2022-08-10T09:51:34.491Z,51.10
2022-08-10T09:54:07.016Z,51.20
2022-08-10T09:56:50.527Z,50.30
2022-08-10T10:00:00.459Z,49.60
2022-08-10T10:02:41.001Z,48.60
2022-08-10T10:05:52.052Z,49.40
2022-08-10T10:08:40.749Z,48.60
2022-08-10T10:11:28.287Z,46.00
2022-08-10T10:14:12.618Z,44.90
2022-08-10T10:16:54.602Z,44.90
2022-08-10T10:19:43.095Z,45.70
2022-08-10T10:22:25.434Z,44.40
2022-08-10T10:25:01.530Z,44.50
2022-08-10T10:28:44.352Z,44.70
2022-08-10T10:31:55.029Z,43.60
2022-08-10T10:34:50.360Z,43.80
2022-08-10T10:37:21.788Z,45.20
2022-08-10T10:40:10.405Z,43.40
2022-08-10T10:42:48.037Z,42.50
2022-08-10T10:45:26.974Z,41.30
2022-08-10T10:47:59.156Z,41.90
2022-08-10T10:50:40.677Z,40.90
2022-08-10T10:53:21.228Z,40.80
2022-08-10T10:56:14.713Z,41.40
2022-08-10T10:58:55.305Z,41.50
2022-08-10T11:01:37.884Z,40.40
2022-08-10T11:04:24.380Z,40.50
2022-08-10T11:07:30.971Z,39.90
2022-08-10T11:10:35.201Z,39.50
2022-08-10T11:14:25.362Z,38.50
2022-08-10T11:16:52.905Z,39.80
2022-08-10T11:20:02.782Z,38.30
2022-08-10T11:22:36.781Z,38.20
2022-08-10T11:25:21.890Z,38.20
2022-08-10T11:28:08.899Z,38.10
2022-08-10T11:31:01.936Z,38.20
2022-08-10T11:34:03.750Z,38.60
2022-08-10T11:36:55.444Z,37.60
2022-08-10T11:39:30.607Z,37.30
2022-08-10T11:42:28.938Z,36.20
2022-08-10T11:45:04.801Z,36.60
2022-08-10T11:47:51.186Z,37.10
2022-08-10T11:50:36.278Z,36.40
2022-08-10T11:53:09.039Z,35.40
2022-08-10T11:55:38.890Z,36.60
2022-08-10T11:58:31.589Z,35.60
2022-08-10T12:01:07.136Z,35.80
2022-08-10T12:03:36.867Z,35.70
2022-08-10T12:06:12.574Z,35.70
2022-08-10T12:10:04.663Z,35.20
2022-08-10T12:11:32.570Z,36.00
2022-08-10T12:14:22.346Z,36.10
2022-08-10T12:17:30.240Z,36.10
2022-08-10T12:20:07.411Z,36.20
2022-08-10T12:22:50.800Z,35.20
2022-08-10T12:25:56.696Z,34.90
2022-08-10T12:28:51.262Z,34.70
2022-08-10T12:31:45.677Z,35.50
2022-08-10T12:34:28.911Z,35.30
2022-08-10T12:37:15.369Z,34.70
2022-08-10T12:39:51.170Z,35.80
2022-08-10T12:42:39.084Z,35.40
2022-08-10T12:48:16.697Z,34.10
2022-08-10T12:50:56.280Z,34.20
2022-08-10T12:53:53.500Z,33.80
2022-08-10T12:56:31.158Z,34.10
2022-08-10T12:59:25.243Z,34.60
2022-08-10T13:02:06.618Z,33.70
2022-08-10T13:04:42.375Z,33.90
2022-08-10T13:07:10.170Z,33.50
2022-08-10T13:09:54.833Z,33.70
2022-08-10T13:12:37.274Z,33.70
2022-08-10T13:15:48.888Z,34.60
2022-08-10T13:18:45.331Z,33.70
2022-08-10T13:21:20.632Z,33.60
2022-08-10T13:24:05.156Z,33.10
2022-08-10T13:26:38.082Z,33.00
2022-08-10T13:29:41.493Z,32.80
2022-08-10T13:32:13.565Z,33.20
2022-08-10T13:34:45.729Z,34.00
2022-08-10T13:37:19.366Z,33.60
2022-08-10T13:39:58.886Z,33.90
2022-08-10T13:42:32.122Z,33.90
2022-08-10T13:45:16.569Z,33.90
2022-08-10T13:47:50.169Z,33.30
2022-08-10T13:50:34.870Z,33.90
2022-08-10T13:53:14.868Z,33.60
2022-08-10T13:55:56.192Z,32.70
2022-08-10T13:58:25.445Z,32.00
2022-08-10T14:01:01.655Z,32.50
2022-08-10T14:03:36.798Z,32.60
2022-08-10T14:06:18.778Z,31.90
2022-08-10T14:08:53.951Z,33.00
2022-08-10T14:11:27.114Z,32.50
2022-08-10T14:14:07.193Z,33.20
2022-08-10T14:16:41.427Z,33.70
2022-08-10T14:19:14.565Z,32.90
2022-08-10T14:21:43.193Z,32.80
2022-08-10T14:24:25.646Z,32.80
2022-08-10T14:27:10.727Z,33.00
2022-08-10T14:29:45.542Z,32.80
2022-08-10T14:32:17.877Z,32.30
2022-08-10T14:36:17.303Z,32.40
2022-08-10T14:38:17.273Z,32.80
2022-08-10T14:40:49.485Z,32.20
2022-08-10T14:43:37.532Z,32.30
2022-08-10T14:46:19.586Z,32.70
2022-08-10T14:48:52.380Z,33.00
2022-08-10T14:51:26.973Z,33.00
2022-08-10T14:54:16.211Z,32.00
2022-08-10T14:56:49.140Z,33.00
2022-08-10T14:59:18.049Z,33.50
2022-08-10T15:02:00.312Z,33.10
2022-08-10T15:04:38.326Z,33.50
2022-08-10T15:07:21.183Z,34.70
2022-08-10T15:10:01.516Z,34.50
2022-08-10T15:12:34.917Z,34.00
2022-08-10T15:15:08.968Z,34.30
2022-08-10T15:17:41.263Z,34.70
2022-08-10T15:20:20.798Z,34.70
2022-08-10T15:23:30.774Z,34.40
2022-08-10T15:26:19.122Z,34.00
2022-08-10T15:29:08.536Z,34.30
2022-08-10T15:34:40.848Z,33.50
2022-08-10T15:37:39.301Z,34.70
2022-08-10T15:40:22.083Z,34.10
2022-08-10T15:43:25.422Z,33.90
2022-08-10T15:46:01.230Z,33.50
2022-08-10T15:48:51.299Z,34.40
2022-08-10T15:51:28.498Z,34.60
2022-08-10T15:54:12.229Z,35.50
2022-08-10T15:56:51.952Z,35.50
2022-08-10T15:59:33.839Z,35.60
2022-08-10T16:02:15.271Z,35.40
2022-08-10T16:05:05.750Z,35.60
2022-08-10T16:08:00.383Z,35.40
2022-08-10T16:10:38.702Z,35.50
2022-08-10T16:13:59.298Z,35.80
2022-08-10T16:16:03.641Z,35.20
2022-08-10T16:18:40.109Z,36.20
2022-08-10T16:24:17.213Z,36.80
2022-08-10T16:26:50.969Z,36.60
2022-08-10T16:29:24.780Z,36.70
2022-08-10T16:31:55.078Z,36.60
2022-08-10T16:34:32.108Z,37.10
2022-08-10T16:37:07.032Z,36.80
2022-08-10T16:39:59.839Z,36.90
2022-08-10T16:42:35.024Z,36.50
2022-08-10T16:45:16.813Z,36.80
2022-08-10T16:47:48.695Z,36.70
2022-08-10T16:50:41.973Z,36.40
2022-08-10T16:53:15.991Z,36.90
2022-08-10T16:55:52.975Z,36.90
2022-08-10T16:58:35.745Z,37.30
2022-08-10T17:01:14.039Z,37.90
2022-08-10T17:04:11.135Z,37.70
2022-08-10T17:15:25.720Z,38.10
2022-08-10T17:18:00.189Z,38.00
2022-08-10T17:20:32.722Z,38.30
2022-08-10T17:23:07.094Z,38.30
2022-08-10T17:25:46.346Z,38.20
2022-08-10T17:28:24.379Z,38.50
2022-08-10T17:31:24.271Z,38.40
2022-08-10T17:34:30.789Z,38.50
2022-08-10T17:37:01.206Z,39.40
2022-08-10T17:39:33.475Z,38.40
2022-08-10T17:42:05.686Z,38.70
2022-08-10T17:44:39.971Z,38.70
2022-08-10T17:47:10.846Z,38.60
2022-08-10T17:49:42.857Z,38.60
2022-08-10T17:52:13.226Z,38.60
2022-08-10T17:54:46.412Z,39.40
2022-08-10T17:57:22.415Z,39.20
2022-08-10T17:59:51.676Z,39.30
2022-08-10T18:02:45.637Z,40.10
2022-08-10T18:05:13.784Z,39.80
2022-08-10T18:07:52.128Z,40.30
2022-08-10T18:10:21.370Z,40.50
2022-08-10T18:12:54.003Z,40.80
2022-08-10T18:15:23.883Z,41.80
2022-08-10T18:18:02.798Z,41.00
2022-08-10T18:20:38.147Z,41.30
2022-08-10T18:23:07.513Z,41.70
2022-08-10T18:25:39.512Z,41.60
2022-08-10T18:28:18.674Z,41.80
2022-08-10T18:30:49.520Z,41.90
2022-08-10T18:33:27.876Z,42.00
2022-08-10T18:36:01.032Z,41.80
2022-08-10T18:38:31.842Z,42.30
2022-08-10T18:41:10.908Z,42.60
2022-08-10T18:44:10.566Z,42.60
2022-08-10T18:46:46.697Z,42.90
2022-08-10T18:49:25.192Z,43.40
2022-08-10T18:51:57.722Z,43.70
2022-08-10T18:54:39.147Z,44.30
2022-08-10T18:57:47.623Z,43.80
2022-08-10T19:00:28.713Z,44.20
2022-08-10T19:03:22.900Z,44.40
2022-08-10T19:06:25.423Z,44.70
2022-08-10T19:09:45.523Z,45.00
2022-08-10T19:12:58.413Z,45.20
2022-08-10T19:16:16.033Z,45.40
2022-08-10T19:19:22.304Z,46.00
2022-08-10T19:22:20.529Z,45.90
2022-08-10T19:24:56.486Z,45.90
2022-08-10T19:28:00.108Z,46.90
2022-08-10T19:30:50.010Z,48.00
2022-08-10T19:34:11.352Z,49.00
2022-08-10T19:37:36.268Z,49.20
2022-08-10T19:40:44.258Z,50.30
2022-08-10T19:44:00.844Z,50.90
2022-08-10T19:46:50.986Z,52.00
2022-08-10T19:49:49.503Z,52.70
2022-08-10T19:52:42.430Z,53.00
2022-08-10T19:55:36.828Z,53.80
2022-08-10T19:58:51.979Z,54.70
2022-08-10T20:01:19.646Z,55.30
2022-08-10T20:03:52.212Z,55.60
2022-08-10T20:06:53.873Z,56.10
2022-08-10T20:09:39.655Z,56.40
2022-08-10T20:12:15.319Z,57.30
2022-08-10T20:14:49.524Z,57.40
2022-08-10T20:17:51.023Z,57.90
2022-08-10T20:21:01.110Z,58.60
2022-08-10T20:23:35.946Z,59.40
2022-08-10T20:26:40.201Z,59.80
2022-08-10T20:29:16.429Z,60.50
2022-08-10T20:32:11.509Z,61.00
2022-08-10T20:34:41.074Z,61.40
2022-08-10T20:38:02.735Z,61.80
2022-08-10T20:40:38.583Z,62.00
2022-08-10T20:43:24.000Z,62.60
2022-08-10T20:46:10.400Z,63.20
2022-08-10T20:48:43.586Z,63.70
2022-08-10T20:51:18.533Z,63.60
2022-08-10T20:53:51.323Z,64.40
2022-08-10T20:57:06.393Z,64.60
2022-08-10T21:00:12.133Z,65.00
2022-08-10T21:03:21.206Z,64.90
2022-08-10T21:06:07.823Z,65.10
2022-08-10T21:08:58.491Z,65.10
2022-08-10T21:11:52.339Z,65.10
2022-08-10T21:14:56.725Z,65.30
2022-08-10T21:21:07.765Z,65.90
2022-08-10T21:23:37.909Z,66.50
2022-08-10T21:26:08.146Z,66.70
2022-08-10T21:28:49.784Z,67.10
2022-08-10T21:31:22.881Z,67.40
2022-08-10T21:34:18.328Z,67.80
2022-08-10T21:37:17.984Z,67.80
2022-08-10T21:40:35.583Z,68.50
2022-08-10T21:43:44.171Z,68.70
2022-08-10T21:46:55.076Z,68.90
2022-08-10T21:50:08.042Z,69.40
2022-08-10T21:53:04.283Z,69.90
2022-08-10T21:56:14.351Z,70.80
2022-08-10T21:59:25.711Z,70.50
2022-08-10T22:02:22.077Z,70.40
2022-08-10T22:05:18.290Z,70.70
2022-08-10T22:08:12.272Z,71.00
2022-08-10T22:11:06.011Z,71.50
2022-08-10T22:13:55.810Z,71.80
2022-08-10T22:17:03.962Z,71.70
2022-08-10T22:19:53.486Z,71.70
2022-08-10T22:22:56.151Z,71.80
2022-08-10T22:25:52.168Z,71.50
2022-08-10T22:28:39.088Z,71.60
2022-08-10T22:31:52.821Z,71.30
2022-08-10T22:34:44.263Z,71.80
2022-08-10T22:37:45.017Z,71.70
2022-08-10T22:40:41.464Z,71.70
2022-08-10T22:44:02.771Z,72.10
2022-08-10T22:46:52.255Z,72.20
2022-08-10T22:49:23.146Z,71.80
2022-08-10T22:52:07.236Z,71.60
2022-08-10T22:55:11.949Z,71.80
2022-08-10T22:58:50.380Z,71.80
2022-08-10T23:01:41.613Z,71.60
2022-08-10T23:04:35.914Z,71.70
2022-08-10T23:07:28.360Z,71.80
2022-08-10T23:10:21.476Z,72.00
2022-08-10T23:12:51.296Z,71.90
2022-08-10T23:15:57.568Z,72.00
2022-08-10T23:19:00.319Z,72.40
2022-08-10T23:22:02.862Z,72.60
2022-08-10T23:24:50.295Z,72.90
2022-08-10T23:27:37.747Z,73.30
2022-08-10T23:30:17.620Z,73.90
2022-08-10T23:32:48.491Z,73.90
2022-08-10T23:36:28.168Z,74.50
2022-08-10T23:38:09.952Z,74.40
2022-08-10T23:40:41.345Z,74.30
2022-08-10T23:43:14.337Z,74.70
2022-08-10T23:45:52.546Z,74.40
2022-08-10T23:48:30.336Z,74.40
2022-08-10T23:51:16.502Z,74.80
2022-08-10T23:53:47.161Z,74.90
2022-08-10T23:56:18.494Z,74.70
2022-08-10T23:58:46.016Z,74.70
